Norman, OK

9:25 PM CST on December 21, 2014 (GMT -0600)
Wiley Post | Change Station
CLOSE
Current Station
Airport
Location: Oklahoma City Wiley Post,
Elevation: 1299 ft
Nearby Weather Stations

Elev 1299 ft 35.53 °N, 97.65 °W | Updated 32 minutes ago

Overcast
Overcast
48 °F
Feels Like 48 °F
N
16
Wind Variable Wind from SSE
Gusts 24 mph

Today
High -- | Low -- °F
--% Chance of Precip.
Yesterday
High -- | Low -- °F
Precip. -- in
7:34 AM 5:21 PM
New Moon, 0% visible
Pressure 29.69 in
Visibility 6.0 miles
Clouds Overcast 1000 ft
Dew Point 44 °F
Humidity 86%
Rainfall 0.01 in
Snow Depth Not available.
UV 0 out of 12
Pollen 8.10 out of 12
Air Quality Not available.
Flu Activity Not available.
METAR KPWA 220253Z 16014G21KT 6SM BR OVC010 09/07 A2969 RMK AO2 SLP054 T00890067 58016

More Conditions Fewer Conditions

Pressure 29.69 in
Visibility 6.0 miles
Clouds Overcast 1000 ft
Dew Point 44 °F
Humidity 86%
Rainfall 0.01 in
Snow Depth Not available.
UV 0 out of 12
Pollen 8.10 out of 12
Air Quality Not available.
Flu Activity Not available.
METAR KPWA 220253Z 16014G21KT 6SM BR OVC010 09/07 A2969 RMK AO2 SLP054 T00890067 58016

More Conditions Fewer Conditions

10-Day Weather Forecast

Almanac

Astronomy

Dec. 21, 2014 Rise Set
Actual Time
Civil Twilight
Nautical Twilight
Astronomical Twilight
Moon
Length of Visible Light
Length of Day
Tomorrow will be .
, % of the Moon is Illuminated

Today's Extremes

State Highs State Lows

Community

WunderPhotos

Upload Photos

1,779,529 photos uploaded!

WunderBlogs® & News

Nearby

Air Quality

  Air Quality AQ Index Pollutant
Not available.

Snow Depth

Station Depth Elevation

Earthquake Activity

City Distance Mag. Time & Date
Minimum magnitude displayed is 2.5.

Coastal Water Temperatures

Place Temperature

Nearby Weather Stations